Epic Sentosa — 9V2720 — position and weather

sailwx.info

Track history (hours):
 
Tides and Currents Weather Stations Pressure Air Temp Water Temp Dewpoint Dewpoint Depression Visibility Wind Speed Wind Dir Waves Ship Positions

Epic Sentosa

Last reported at 2018-Jan-02 05:56 UTC. Time now 2018-Jan-19 21:26 UTC.
Position N 36°19' E 015°14'.
Warning: this ship's position is 17 days out of date.

Length 120 m; draft 6.5 m.

Type: Ship (hazmat cat D). MMSI: 565502000.

Date/timePositionNaut miles runAvg speedWind from/ knotsBaromVisibWave heightAir tempDewpointWater temp
2018-Jan-02 05:56N 36°19' E 015°14'615.2
2018-Jan-02 05:30N 36°20' E 015°07'1515.4
2018-Jan-02 04:30N 36°25' E 014°48'815.2
2018-Jan-02 04:00N 36°27' E 014°39'815.0
2018-Jan-02 03:30N 36°29' E 014°30'714.9
2018-Jan-02 03:00N 36°32' E 014°22'714.6
2018-Jan-02 02:30N 36°35' E 014°13'  
2017-Dec-30 12:25N 36°04' W 005°13'6 0.6
2017-Dec-30 01:46N 36°03' W 005°21'311.7
2017-Dec-30 01:30N 35°60' W 005°22'715.1
2017-Dec-30 01:00N 35°57' W 005°30'24312.9
2017-Dec-29 06:11N 37°54' W 009°57'715.2
2017-Dec-29 05:42N 38°01' W 009°59'315.3
2017-Dec-29 05:30N 38°04' W 010°00'1015.4
2017-Dec-29 04:51N 38°14' W 010°03'715.4
2017-Dec-29 04:22N 38°21' W 010°05'815.3
2017-Dec-29 03:51N 38°29' W 010°08'715.3
2017-Dec-29 03:25N 38°35' W 010°10'615.0
2017-Dec-29 02:59N 38°41' W 010°11'714.9
2017-Dec-29 02:30N 38°48' W 010°11'815.2
2017-Dec-29 02:00N 38°56' W 010°11'815.2
2017-Dec-29 01:30N 39°04' W 010°11'815.1
2017-Dec-29 01:00N 39°11' W 010°11'  
2017-Dec-26 16:27N 49°48' W 003°25'613.2
2017-Dec-26 16:00N 49°51' W 003°17'1212.6
2017-Dec-26 15:01N 49°57' W 003°00'012.5
2017-Dec-26 14:59N 49°58' W 002°60'612.3
2017-Dec-26 14:30N 49°60' W 002°51'612.1
2017-Dec-26 14:00N 50°01' W 002°42'611.8
2017-Dec-26 13:30N 50°03' W 002°33'611.5
2017-Dec-26 13:00N 50°04' W 002°24'8413.0
2017-Dec-26 06:32N 50°26' W 000°17'114.5
2017-Dec-26 06:27N 50°27' W 000°15'614.3
2017-Dec-26 06:00N 50°28' W 000°06'714.1
2017-Dec-26 05:30N 50°30' E 000°05'713.6
2017-Dec-26 05:00N 50°32' E 000°15'713.4
2017-Dec-26 04:30N 50°33' E 000°26'612.9
2017-Dec-26 04:00N 50°35' E 000°35'612.6
2017-Dec-26 03:30N 50°39' E 000°43'612.5
2017-Dec-26 03:00N 50°43' E 000°50'612.1
2017-Dec-26 02:29N 50°48' E 000°57'1211.4
2017-Dec-26 01:26N 50°56' E 001°12'610.8
2017-Dec-26 00:52N 51°00' E 001°19'411.0
2017-Dec-26 00:30N 51°02' E 001°24'612.8
2017-Dec-26 00:00N 51°06' E 001°32'713.8
2017-Dec-25 23:30N 51°11' E 001°40'714.1
2017-Dec-25 23:01N 51°16' E 001°48'714.2
2017-Dec-25 22:30N 51°22' E 001°53'713.5
2017-Dec-25 22:00N 51°28' E 001°58'713.2
2017-Dec-25 21:30N 51°33' E 002°05'713.1
2017-Dec-25 21:00N 51°38' E 002°12'612.6
2017-Dec-25 20:30N 51°43' E 002°19'15212.5
2017-Dec-25 08:19N 53°36' E 005°08'10411.9
2017-Dec-24 23:32N 53°45' E 008°03'0 9.0
2017-Dec-24 23:29N 53°44' E 008°03'6 8.6
2017-Dec-24 22:48N 53°39' E 008°07'1 0.1
2017-Dec-24 13:45N 53°38' E 008°07'0 0.0
2017-Dec-24 11:15N 53°38' E 008°07'0 0.0
2017-Dec-23 23:33N 53°38' E 008°07'0 0.0
2017-Dec-23 23:30N 53°38' E 008°07'0 0.0
2017-Dec-23 23:00N 53°38' E 008°07'0 0.0
2017-Dec-23 22:24N 53°38' E 008°07'0 0.0
2017-Dec-23 22:00N 53°38' E 008°07'0 0.0
2017-Dec-23 21:24N 53°38' E 008°07'0 0.0
2017-Dec-23 21:00N 53°38' E 008°07'0 0.0
2017-Dec-23 20:24N 53°38' E 008°07'0 0.1
2017-Dec-23 20:00N 53°38' E 008°06'1 2.1
2017-Dec-23 19:31N 53°38' E 008°08'2 4.3
2017-Dec-23 18:59N 53°36' E 008°10'0 0.1
2017-Dec-23 18:29N 53°36' E 008°10'0 0.0
2017-Dec-23 17:59N 53°36' E 008°10'0 0.0
2017-Dec-23 17:29N 53°36' E 008°10'0 0.0
2017-Dec-23 16:50N 53°36' E 008°10'0 0.1
2017-Dec-23 16:29N 53°36' E 008°10'0 0.0
2017-Dec-23 15:53N 53°36' E 008°10'0 0.1
2017-Dec-23 15:29N 53°36' E 008°10'0 0.0
2017-Dec-23 14:59N 53°36' E 008°10'0 0.1
2017-Dec-23 14:29N 53°36' E 008°10'0 0.0
2017-Dec-23 13:56N 53°36' E 008°10'0 0.0
2017-Dec-23 13:26N 53°36' E 008°10'0 0.0
2017-Dec-23 12:59N 53°36' E 008°10'0 0.0
2017-Dec-23 12:29N 53°36' E 008°10'0 0.0
2017-Dec-23 11:59N 53°36' E 008°10'0 0.0
2017-Dec-23 11:29N 53°36' E 008°10'0 0.0
2017-Dec-23 10:47N 53°36' E 008°10'0 0.0
2017-Dec-23 10:29N 53°36' E 008°10'0 0.0
2017-Dec-23 09:56N 53°36' E 008°10'0 0.0
2017-Dec-23 09:29N 53°36' E 008°10'0 0.0
2017-Dec-23 08:59N 53°36' E 008°10'0 0.0
2017-Dec-23 08:29N 53°36' E 008°10'0 0.0
2017-Dec-23 07:56N 53°36' E 008°10'0 0.0
2017-Dec-23 07:26N 53°36' E 008°10'0 0.1
2017-Dec-23 06:59N 53°36' E 008°10'0 0.1
2017-Dec-23 06:29N 53°36' E 008°10'0 0.0
2017-Dec-23 05:59N 53°36' E 008°10'  
Track history (hours):
 
Tides and Currents Weather Stations Pressure Air Temp Water Temp Dewpoint Dewpoint Depression Visibility Wind Speed Wind Dir Waves Ship Positions

Epic Sentosa

Last reported at 2018-Jan-02 05:56 UTC. Time now 2018-Jan-19 21:26 UTC.
Position N 36°19' E 015°14'.
Warning: this ship's position is 17 days out of date.

Length 120 m; draft 6.5 m.

Type: Ship (hazmat cat D). MMSI: 565502000.

Date/timePositionNaut miles runAvg speedWind from/ knotsBaromVisibWave heightAir tempDewpointWater temp
2018-Jan-02 05:56N 36°19' E 015°14'615.2
2018-Jan-02 05:30N 36°20' E 015°07'1515.4
2018-Jan-02 04:30N 36°25' E 014°48'815.2
2018-Jan-02 04:00N 36°27' E 014°39'815.0
2018-Jan-02 03:30N 36°29' E 014°30'714.9
2018-Jan-02 03:00N 36°32' E 014°22'714.6
2018-Jan-02 02:30N 36°35' E 014°13'  
2017-Dec-30 12:25N 36°04' W 005°13'6 0.6
2017-Dec-30 01:46N 36°03' W 005°21'311.7
2017-Dec-30 01:30N 35°60' W 005°22'715.1
2017-Dec-30 01:00N 35°57' W 005°30'24312.9
2017-Dec-29 06:11N 37°54' W 009°57'715.2
2017-Dec-29 05:42N 38°01' W 009°59'315.3
2017-Dec-29 05:30N 38°04' W 010°00'1015.4
2017-Dec-29 04:51N 38°14' W 010°03'715.4
2017-Dec-29 04:22N 38°21' W 010°05'815.3
2017-Dec-29 03:51N 38°29' W 010°08'715.3
2017-Dec-29 03:25N 38°35' W 010°10'615.0
2017-Dec-29 02:59N 38°41' W 010°11'714.9
2017-Dec-29 02:30N 38°48' W 010°11'815.2
2017-Dec-29 02:00N 38°56' W 010°11'815.2
2017-Dec-29 01:30N 39°04' W 010°11'815.1
2017-Dec-29 01:00N 39°11' W 010°11'  
2017-Dec-26 16:27N 49°48' W 003°25'613.2
2017-Dec-26 16:00N 49°51' W 003°17'1212.6
2017-Dec-26 15:01N 49°57' W 003°00'012.5
2017-Dec-26 14:59N 49°58' W 002°60'612.3
2017-Dec-26 14:30N 49°60' W 002°51'612.1
2017-Dec-26 14:00N 50°01' W 002°42'611.8
2017-Dec-26 13:30N 50°03' W 002°33'611.5
2017-Dec-26 13:00N 50°04' W 002°24'8413.0
2017-Dec-26 06:32N 50°26' W 000°17'114.5
2017-Dec-26 06:27N 50°27' W 000°15'614.3
2017-Dec-26 06:00N 50°28' W 000°06'714.1
2017-Dec-26 05:30N 50°30' E 000°05'713.6
2017-Dec-26 05:00N 50°32' E 000°15'713.4
2017-Dec-26 04:30N 50°33' E 000°26'612.9
2017-Dec-26 04:00N 50°35' E 000°35'612.6
2017-Dec-26 03:30N 50°39' E 000°43'612.5
2017-Dec-26 03:00N 50°43' E 000°50'612.1
2017-Dec-26 02:29N 50°48' E 000°57'1211.4
2017-Dec-26 01:26N 50°56' E 001°12'610.8
2017-Dec-26 00:52N 51°00' E 001°19'411.0
2017-Dec-26 00:30N 51°02' E 001°24'612.8
2017-Dec-26 00:00N 51°06' E 001°32'713.8
2017-Dec-25 23:30N 51°11' E 001°40'714.1
2017-Dec-25 23:01N 51°16' E 001°48'714.2
2017-Dec-25 22:30N 51°22' E 001°53'713.5
2017-Dec-25 22:00N 51°28' E 001°58'713.2
2017-Dec-25 21:30N 51°33' E 002°05'713.1
2017-Dec-25 21:00N 51°38' E 002°12'612.6
2017-Dec-25 20:30N 51°43' E 002°19'15212.5
2017-Dec-25 08:19N 53°36' E 005°08'10411.9
2017-Dec-24 23:32N 53°45' E 008°03'0 9.0
2017-Dec-24 23:29N 53°44' E 008°03'6 8.6
2017-Dec-24 22:48N 53°39' E 008°07'1 0.1
2017-Dec-24 13:45N 53°38' E 008°07'0 0.0
2017-Dec-24 11:15N 53°38' E 008°07'0 0.0
2017-Dec-23 23:33N 53°38' E 008°07'0 0.0
2017-Dec-23 23:30N 53°38' E 008°07'0 0.0
2017-Dec-23 23:00N 53°38' E 008°07'0 0.0
2017-Dec-23 22:24N 53°38' E 008°07'0 0.0
2017-Dec-23 22:00N 53°38' E 008°07'0 0.0
2017-Dec-23 21:24N 53°38' E 008°07'0 0.0
2017-Dec-23 21:00N 53°38' E 008°07'0 0.0
2017-Dec-23 20:24N 53°38' E 008°07'0 0.1
2017-Dec-23 20:00N 53°38' E 008°06'1 2.1
2017-Dec-23 19:31N 53°38' E 008°08'2 4.3
2017-Dec-23 18:59N 53°36' E 008°10'0 0.1
2017-Dec-23 18:29N 53°36' E 008°10'0 0.0
2017-Dec-23 17:59N 53°36' E 008°10'0 0.0
2017-Dec-23 17:29N 53°36' E 008°10'0 0.0
2017-Dec-23 16:50N 53°36' E 008°10'0 0.1
2017-Dec-23 16:29N 53°36' E 008°10'0 0.0
2017-Dec-23 15:53N 53°36' E 008°10'0 0.1
2017-Dec-23 15:29N 53°36' E 008°10'0 0.0
2017-Dec-23 14:59N 53°36' E 008°10'0 0.1
2017-Dec-23 14:29N 53°36' E 008°10'0 0.0
2017-Dec-23 13:56N 53°36' E 008°10'0 0.0
2017-Dec-23 13:26N 53°36' E 008°10'0 0.0
2017-Dec-23 12:59N 53°36' E 008°10'0 0.0
2017-Dec-23 12:29N 53°36' E 008°10'0 0.0
2017-Dec-23 11:59N 53°36' E 008°10'0 0.0
2017-Dec-23 11:29N 53°36' E 008°10'0 0.0
2017-Dec-23 10:47N 53°36' E 008°10'0 0.0
2017-Dec-23 10:29N 53°36' E 008°10'0 0.0
2017-Dec-23 09:56N 53°36' E 008°10'0 0.0
2017-Dec-23 09:29N 53°36' E 008°10'0 0.0
2017-Dec-23 08:59N 53°36' E 008°10'0 0.0
2017-Dec-23 08:29N 53°36' E 008°10'0 0.0
2017-Dec-23 07:56N 53°36' E 008°10'0 0.0
2017-Dec-23 07:26N 53°36' E 008°10'0 0.1
2017-Dec-23 06:59N 53°36' E 008°10'0 0.1
2017-Dec-23 06:29N 53°36' E 008°10'0 0.0
2017-Dec-23 05:59N 53°36' E 008°10'  

Dump ship's entire track history